Time;durP1;ratioP1;P1;durP2;ratioP2;P2;SDS_P1;SDS_P2;PMS_P1;PMS_P2;Temp;Humidity;BMP_temperature;BMP_pressure;BME280_temperature;BME280_humidity;BME280_pressure;Samples;Min_cycle;Max_cycle;Signal;HPM_P1;HPM_P2
2021/08/13 00:00:57;;;;;;;9.73;8.80;;;20.00;99.90;;;;;;2072698;28;20386;-68
2021/08/13 00:01:57;;;;;;;9.05;8.13;;;20.00;99.90;;;;;;2072699;28;20022;-68
2021/08/13 00:02:58;;;;;;;10.60;9.27;;;20.00;99.90;;;;;;2072469;28;20026;-68
2021/08/13 00:03:58;;;;;;;10.10;9.10;;;20.00;99.90;;;;;;2072718;28;20026;-68
2021/08/13 00:04:59;;;;;;;10.20;9.20;;;19.90;99.90;;;;;;2073077;28;20645;-68
2021/08/13 00:06:00;;;;;;;14.15;9.63;;;20.00;99.90;;;;;;2072798;28;20030;-68
2021/08/13 00:07:00;;;;;;;11.80;9.77;;;19.90;99.90;;;;;;2072890;28;20064;-68
2021/08/13 00:08:01;;;;;;;12.07;9.80;;;19.90;99.90;;;;;;2072708;28;20049;-68
2021/08/13 00:09:02;;;;;;;12.57;9.82;;;19.90;99.90;;;;;;2073038;28;20034;-68
2021/08/13 00:10:04;;;;;;;12.25;10.55;;;19.90;99.90;;;;;;2072752;28;20026;-68
2021/08/13 00:11:04;;;;;;;10.40;9.30;;;19.90;99.90;;;;;;2072829;28;20025;-68
2021/08/13 00:12:05;;;;;;;10.63;9.32;;;19.90;99.90;;;;;;2072432;28;20026;-68
2021/08/13 00:13:06;;;;;;;10.77;9.30;;;19.90;99.90;;;;;;2072667;28;20076;-68
2021/08/13 00:14:08;;;;;;;10.60;9.05;;;19.90;99.90;;;;;;2072649;28;20068;-68
2021/08/13 00:15:09;;;;;;;10.18;9.18;;;19.80;99.90;;;;;;2076545;28;20026;-69
2021/08/13 00:16:10;;;;;;;12.10;9.43;;;19.80;99.90;;;;;;2072519;28;20033;-69
2021/08/13 00:17:11;;;;;;;10.65;9.57;;;19.80;99.90;;;;;;2072555;28;20026;-68
2021/08/13 00:18:12;;;;;;;10.18;9.18;;;19.80;99.90;;;;;;2072828;28;20029;-68
2021/08/13 00:19:12;;;;;;;11.27;8.90;;;19.80;99.90;;;;;;2072996;28;20042;-68
2021/08/13 00:20:13;;;;;;;12.65;10.25;;;19.80;99.90;;;;;;2072628;28;20033;-68
2021/08/13 00:21:14;;;;;;;10.95;9.05;;;19.80;99.90;;;;;;2072833;28;20080;-69
2021/08/13 00:22:14;;;;;;;11.23;9.50;;;19.80;99.90;;;;;;2072290;28;20034;-68
2021/08/13 00:23:15;;;;;;;11.95;9.43;;;19.70;99.90;;;;;;2072336;28;20435;-68
2021/08/13 00:24:16;;;;;;;11.05;8.85;;;19.80;99.90;;;;;;2072376;28;20052;-68
2021/08/13 00:25:17;;;;;;;11.25;9.77;;;19.70;99.90;;;;;;2072665;28;20018;-68
2021/08/13 00:26:18;;;;;;;10.63;9.48;;;19.70;99.90;;;;;;2072347;28;20034;-68
2021/08/13 00:27:19;;;;;;;12.02;9.60;;;19.70;99.90;;;;;;2070169;28;20478;-68
2021/08/13 00:28:19;;;;;;;11.35;9.13;;;19.70;99.90;;;;;;2072551;28;20018;-68
2021/08/13 00:29:20;;;;;;;10.38;9.27;;;19.70;99.90;;;;;;2072831;28;20426;-68
2021/08/13 00:30:21;;;;;;;11.55;8.80;;;19.70;99.90;;;;;;2073487;28;20060;-68
2021/08/13 00:31:22;;;;;;;9.75;8.80;;;19.70;99.90;;;;;;2072725;28;20050;-68
2021/08/13 00:32:22;;;;;;;10.45;9.35;;;19.70;99.90;;;;;;2072463;28;20084;-68
2021/08/13 00:33:23;;;;;;;10.73;9.63;;;19.70;99.90;;;;;;2072319;28;20041;-68
2021/08/13 00:34:23;;;;;;;10.20;8.65;;;19.60;99.90;;;;;;2072695;28;20604;-68
2021/08/13 00:35:24;;;;;;;10.52;9.20;;;19.60;99.90;;;;;;2072466;28;20108;-68
2021/08/13 00:36:24;;;;;;;11.68;9.20;;;19.60;99.90;;;;;;2072911;28;20579;-68
2021/08/13 00:37:25;;;;;;;10.07;8.40;;;19.60;99.90;;;;;;2072070;28;20029;-68
2021/08/13 00:38:25;;;;;;;10.50;9.43;;;19.60;99.90;;;;;;2072413;28;20034;-68
2021/08/13 00:39:26;;;;;;;10.82;8.93;;;19.60;99.90;;;;;;2072382;28;20067;-68
2021/08/13 00:40:27;;;;;;;10.10;8.93;;;19.60;99.90;;;;;;2072570;28;20113;-68
2021/08/13 00:41:27;;;;;;;10.02;8.95;;;19.60;99.90;;;;;;2072108;28;20406;-69
2021/08/13 00:42:28;;;;;;;10.10;9.13;;;19.60;99.90;;;;;;2072682;28;20080;-68
2021/08/13 00:43:29;;;;;;;11.57;9.40;;;19.60;99.90;;;;;;2072235;28;20026;-68
2021/08/13 00:44:30;;;;;;;10.50;9.27;;;19.60;99.90;;;;;;2072606;28;20022;-69
2021/08/13 00:45:31;;;;;;;14.05;9.43;;;19.60;99.90;;;;;;2072296;28;20108;-68
2021/08/13 00:46:31;;;;;;;10.20;8.48;;;19.60;99.90;;;;;;2073168;28;20096;-68
2021/08/13 00:47:32;;;;;;;9.55;8.60;;;19.50;99.90;;;;;;2073169;28;20080;-68
2021/08/13 00:48:33;;;;;;;10.10;9.07;;;19.50;99.90;;;;;;2072406;28;20101;-68
2021/08/13 00:49:33;;;;;;;9.43;8.63;;;19.50;99.90;;;;;;2072372;28;20092;-68
2021/08/13 00:50:34;;;;;;;11.93;8.93;;;19.50;99.90;;;;;;2072828;28;20217;-69
2021/08/13 00:51:35;;;;;;;10.93;8.85;;;19.50;99.90;;;;;;2072327;28;20437;-69
2021/08/13 00:52:38;;;;;;;8.88;8.07;;;19.50;99.90;;;;;;2072338;28;20029;-68
2021/08/13 00:53:38;;;;;;;10.25;9.00;;;19.50;99.90;;;;;;2072579;28;20578;-69
2021/08/13 00:54:39;;;;;;;12.15;9.15;;;19.50;99.90;;;;;;2068338;28;20421;-69
2021/08/13 00:55:40;;;;;;;10.38;8.73;;;19.50;99.90;;;;;;2070561;28;20227;-69
2021/08/13 00:56:40;;;;;;;12.40;9.95;;;19.50;99.90;;;;;;2071401;28;20029;-69
2021/08/13 00:57:41;;;;;;;12.70;9.20;;;19.50;99.90;;;;;;2070123;28;20022;-68
2021/08/13 00:58:42;;;;;;;10.27;9.18;;;19.40;99.90;;;;;;2072222;28;20033;-68
2021/08/13 00:59:44;;;;;;;10.27;9.20;;;19.50;99.90;;;;;;2072309;28;20109;-68
2021/08/13 01:00:45;;;;;;;10.88;9.38;;;19.40;99.90;;;;;;2072244;28;20057;-68
2021/08/13 01:01:46;;;;;;;12.45;8.80;;;19.50;99.90;;;;;;2072419;28;20493;-69
2021/08/13 01:02:47;;;;;;;9.63;8.27;;;19.40;99.90;;;;;;2072109;28;20040;-68
2021/08/13 01:03:47;;;;;;;10.20;8.80;;;19.40;99.90;;;;;;2072581;28;20018;-69
2021/08/13 01:04:48;;;;;;;10.75;9.65;;;19.40;99.90;;;;;;2072439;28;20021;-69
2021/08/13 01:05:49;;;;;;;9.93;9.00;;;19.40;99.90;;;;;;2072403;28;20433;-69
2021/08/13 01:06:49;;;;;;;10.80;9.63;;;19.40;99.90;;;;;;2072680;28;20021;-69
2021/08/13 01:07:50;;;;;;;14.68;9.48;;;19.40;99.90;;;;;;2072099;28;20133;-68
2021/08/13 01:08:51;;;;;;;13.23;9.63;;;19.40;99.90;;;;;;2072543;28;20108;-68
2021/08/13 01:09:51;;;;;;;12.45;9.70;;;19.40;99.90;;;;;;2072254;28;20153;-68
2021/08/13 01:11:05;;;;;;;12.07;9.30;;;19.40;99.90;;;;;;2072379;28;20109;-69
2021/08/13 01:12:37;;;;;;;10.27;9.27;;;19.40;99.90;;;;;;2072102;28;20482;-69
2021/08/13 01:13:50;;;;;;;11.43;9.32;;;19.40;99.90;;;;;;2072299;28;20906;-68
2021/08/13 01:14:56;;;;;;;10.05;8.95;;;19.40;99.90;;;;;;2072406;28;20029;-68
2021/08/13 01:16:00;;;;;;;10.07;8.82;;;19.30;99.90;;;;;;2072535;28;20018;-68
2021/08/13 01:17:03;;;;;;;11.00;9.85;;;19.30;99.90;;;;;;2072255;28;20125;-69
2021/08/13 01:18:19;;;;;;;10.48;9.40;;;19.30;99.90;;;;;;2072405;28;20052;-69
2021/08/13 01:19:56;;;;;;;10.25;9.18;;;19.30;99.90;;;;;;2072423;28;20087;-68
2021/08/13 01:21:27;;;;;;;9.68;8.68;;;19.30;99.90;;;;;;2071687;28;20161;-69
2021/08/13 01:22:32;;;;;;;;;;;19.30;99.90;;;;;;2072552;28;20025;-69
2021/08/13 01:23:48;;;;;;;11.98;9.98;;;19.20;99.90;;;;;;2071822;28;19912;-69
2021/08/13 01:24:53;;;;;;;10.93;9.40;;;19.20;99.90;;;;;;2072053;28;20033;-68
2021/08/13 01:25:59;;;;;;;12.95;8.85;;;19.20;99.90;;;;;;2072501;28;20030;-69
2021/08/13 01:27:05;;;;;;;10.10;9.00;;;19.20;99.90;;;;;;2072308;28;20038;-68
2021/08/13 01:28:17;;;;;;;9.45;8.45;;;19.30;99.90;;;;;;2071964;28;20029;-69
2021/08/13 01:29:45;;;;;;;12.73;9.07;;;19.20;99.90;;;;;;2072282;28;20026;-69
2021/08/13 01:30:45;;;;;;;12.52;9.00;;;19.20;99.90;;;;;;2071898;28;20037;-69
2021/08/13 01:32:13;;;;;;;10.55;9.35;;;19.20;99.90;;;;;;2072004;28;20053;-69
2021/08/13 01:33:15;;;;;;;10.43;9.30;;;19.20;99.90;;;;;;2071040;28;20394;-69
2021/08/13 01:34:18;;;;;;;10.35;9.20;;;19.20;99.90;;;;;;2071847;28;20164;-69
2021/08/13 01:35:35;;;;;;;14.13;9.73;;;19.20;99.90;;;;;;2069276;28;20088;-69
2021/08/13 01:36:36;;;;;;;10.60;8.88;;;19.30;99.90;;;;;;2075657;28;20398;-69
2021/08/13 01:37:42;;;;;;;10.43;9.32;;;19.20;99.90;;;;;;2072084;28;20080;-69
2021/08/13 01:38:43;;;;;;;10.75;9.63;;;19.20;99.90;;;;;;2071895;28;20076;-69
2021/08/13 01:39:45;;;;;;;13.65;9.60;;;19.20;99.90;;;;;;2071822;28;20030;-69
2021/08/13 01:40:48;;;;;;;11.63;9.52;;;19.20;99.90;;;;;;2072045;28;20033;-69
2021/08/13 01:41:50;;;;;;;9.60;8.60;;;19.20;99.90;;;;;;2072133;28;20026;-69
2021/08/13 01:42:52;;;;;;;10.35;9.38;;;19.20;99.90;;;;;;2071377;28;20613;-68
2021/08/13 01:43:53;;;;;;;10.25;8.93;;;19.30;99.90;;;;;;2072537;28;20041;-68
2021/08/13 01:44:56;;;;;;;10.30;9.15;;;19.20;99.90;;;;;;2071888;28;20060;-68
2021/08/13 01:45:58;;;;;;;9.50;8.40;;;19.20;99.90;;;;;;2072418;28;20022;-68
2021/08/13 01:47:00;;;;;;;10.38;9.05;;;19.20;99.90;;;;;;2072090;28;20021;-69
2021/08/13 01:48:03;;;;;;;11.43;8.40;;;19.20;99.90;;;;;;2071817;28;20036;-69
2021/08/13 01:49:04;;;;;;;11.20;8.52;;;19.20;99.90;;;;;;2071788;28;20462;-69
2021/08/13 01:50:06;;;;;;;9.52;8.00;;;19.20;99.90;;;;;;2076277;28;20104;-68
2021/08/13 01:51:08;;;;;;;10.10;9.13;;;19.20;99.90;;;;;;2077135;28;20017;-68
2021/08/13 01:52:09;;;;;;;10.15;9.05;;;19.20;99.90;;;;;;2070146;28;20028;-68
2021/08/13 01:53:13;;;;;;;10.15;8.27;;;19.20;99.90;;;;;;2071465;28;20064;-69
2021/08/13 01:54:15;;;;;;;10.73;9.07;;;19.20;99.90;;;;;;2071928;28;20029;-69
2021/08/13 01:55:17;;;;;;;9.75;8.85;;;19.20;99.90;;;;;;2072199;28;20038;-68
2021/08/13 01:56:18;;;;;;;10.68;8.70;;;19.20;99.90;;;;;;2072241;28;20014;-68
2021/08/13 01:57:21;;;;;;;12.20;8.77;;;19.20;99.90;;;;;;2071846;28;20022;-68
2021/08/13 01:58:23;;;;;;;10.90;8.63;;;19.20;99.90;;;;;;2063645;28;20018;-68
2021/08/13 01:59:23;;;;;;;10.65;8.90;;;19.20;99.90;;;;;;2067023;28;20090;-68
2021/08/13 02:00:25;;;;;;;9.70;8.70;;;19.20;99.90;;;;;;2071942;28;20083;-69
2021/08/13 02:01:28;;;;;;;10.48;9.45;;;19.20;99.90;;;;;;2073184;28;20057;-69
2021/08/13 02:02:30;;;;;;;12.48;9.13;;;19.20;99.90;;;;;;2073266;28;20040;-68
2021/08/13 02:03:32;;;;;;;9.25;8.35;;;19.20;99.90;;;;;;2074993;28;20144;-68
2021/08/13 02:04:33;;;;;;;9.07;7.85;;;19.20;99.90;;;;;;2075891;28;20041;-68
2021/08/13 02:05:35;;;;;;;8.07;7.28;;;19.20;99.90;;;;;;2073250;28;20406;-68
2021/08/13 02:06:36;;;;;;;10.13;8.73;;;19.20;99.90;;;;;;2073149;28;20434;-68
2021/08/13 02:07:40;;;;;;;10.90;8.52;;;19.20;99.90;;;;;;2078153;28;20120;-68
2021/08/13 02:08:42;;;;;;;10.02;8.90;;;19.20;99.90;;;;;;2081210;28;20029;-68
2021/08/13 02:09:43;;;;;;;11.18;8.45;;;19.10;99.90;;;;;;2073318;28;20032;-68
2021/08/13 02:10:46;;;;;;;10.77;8.38;;;19.20;99.90;;;;;;2073179;28;20038;-68
2021/08/13 02:11:47;;;;;;;9.48;8.40;;;19.10;99.90;;;;;;2073028;28;20414;-68
2021/08/13 02:12:47;;;;;;;9.15;8.30;;;19.10;99.90;;;;;;2072801;28;20025;-69
2021/08/13 02:13:48;;;;;;;9.32;8.35;;;19.10;99.90;;;;;;2072598;28;20060;-68
2021/08/13 02:14:49;;;;;;;8.98;8.13;;;19.10;99.90;;;;;;2072735;28;20084;-68
2021/08/13 02:16:09;;;;;;;9.82;8.55;;;19.10;99.90;;;;;;2072759;28;20048;-68
2021/08/13 02:17:15;;;;;;;10.68;8.88;;;19.10;99.90;;;;;;2073107;28;20102;-69
2021/08/13 02:18:22;;;;;;;9.75;8.75;;;19.10;99.90;;;;;;2072994;28;20038;-69
2021/08/13 02:19:34;;;;;;;9.65;8.65;;;19.10;99.90;;;;;;2073295;28;20367;-69
2021/08/13 02:20:38;;;;;;;13.65;8.63;;;19.00;99.90;;;;;;2072882;28;20033;-68
2021/08/13 02:21:43;;;;;;;8.60;7.70;;;19.00;99.90;;;;;;2076974;28;20021;-68
2021/08/13 02:22:44;;;;;;;9.45;7.90;;;19.00;99.90;;;;;;2072904;28;20413;-68
2021/08/13 02:23:45;;;;;;;9.60;8.60;;;19.00;99.90;;;;;;2073039;28;20030;-68
2021/08/13 02:24:45;;;;;;;9.88;8.85;;;19.00;99.90;;;;;;2073086;28;20018;-68
2021/08/13 02:25:47;;;;;;;9.88;8.45;;;19.00;99.90;;;;;;2073009;28;20033;-68
2021/08/13 02:26:48;;;;;;;8.95;8.05;;;19.00;99.90;;;;;;2073004;28;20034;-68
2021/08/13 02:27:49;;;;;;;10.48;9.50;;;19.00;99.90;;;;;;2073083;28;20032;-68
2021/08/13 02:28:49;;;;;;;9.48;8.40;;;19.00;99.90;;;;;;2072795;28;20026;-68
2021/08/13 02:29:50;;;;;;;10.50;9.30;;;19.00;99.90;;;;;;2073037;28;20034;-68
2021/08/13 02:30:50;;;;;;;11.13;8.35;;;19.00;99.90;;;;;;2072773;28;20430;-68
2021/08/13 02:31:51;;;;;;;9.75;8.85;;;19.00;99.90;;;;;;2072901;28;20025;-68
2021/08/13 02:32:51;;;;;;;8.93;8.07;;;19.00;99.90;;;;;;2072350;28;20041;-68
2021/08/13 02:33:52;;;;;;;9.10;8.18;;;19.00;99.90;;;;;;2073040;28;20030;-68
2021/08/13 02:34:53;;;;;;;10.70;7.97;;;19.00;99.90;;;;;;2073001;28;20033;-68
2021/08/13 02:36:04;;;;;;;9.43;8.52;;;19.00;99.90;;;;;;2080627;28;20029;-68
2021/08/13 02:37:07;;;;;;;8.88;7.97;;;19.00;99.90;;;;;;2074728;28;20382;-68
2021/08/13 02:38:18;;;;;;;10.23;9.23;;;19.00;99.90;;;;;;2072761;28;20022;-68
2021/08/13 02:39:26;;;;;;;9.45;8.55;;;19.00;99.90;;;;;;2064001;28;20036;-68
2021/08/13 02:40:54;;;;;;;9.10;8.20;;;19.00;99.90;;;;;;2072295;28;20101;-68
2021/08/13 02:41:59;;;;;;;10.48;8.40;;;18.90;99.90;;;;;;2072853;28;20018;-68
2021/08/13 02:43:12;;;;;;;9.55;8.65;;;18.90;99.90;;;;;;2072626;28;20045;-69
2021/08/13 02:44:17;;;;;;;9.50;8.50;;;18.90;99.90;;;;;;2072998;28;20057;-69
2021/08/13 02:45:24;;;;;;;8.98;8.05;;;18.80;99.90;;;;;;2072731;28;20026;-69
2021/08/13 02:46:31;;;;;;;9.13;8.23;;;18.80;99.90;;;;;;2072729;28;20030;-68
2021/08/13 02:47:32;;;;;;;9.68;8.50;;;18.80;99.90;;;;;;2072953;28;20018;-68
2021/08/13 02:48:35;;;;;;;9.02;8.13;;;18.80;99.90;;;;;;2072920;28;20034;-68
2021/08/13 02:49:45;;;;;;;9.38;8.32;;;18.80;99.90;;;;;;2066266;28;20034;-68
2021/08/13 02:50:48;;;;;;;12.20;9.23;;;18.80;99.90;;;;;;2073165;28;20037;-69
2021/08/13 02:51:54;;;;;;;9.45;8.45;;;18.80;99.90;;;;;;2077253;28;20041;-68
2021/08/13 02:53:00;;;;;;;9.55;8.57;;;18.80;99.90;;;;;;2078380;28;20033;-68
2021/08/13 02:54:01;;;;;;;11.02;9.35;;;18.80;99.90;;;;;;2072913;28;20037;-68
2021/08/13 02:55:06;;;;;;;9.27;8.32;;;18.80;99.90;;;;;;2072885;28;20109;-68
2021/08/13 02:56:09;;;;;;;10.00;9.00;;;18.80;99.90;;;;;;2072674;28;20026;-68
2021/08/13 02:57:13;;;;;;;9.82;8.60;;;18.80;99.90;;;;;;2072486;28;20025;-68
2021/08/13 02:58:19;;;;;;;9.57;8.57;;;18.80;99.90;;;;;;2072177;28;20026;-69
2021/08/13 02:59:20;;;;;;;11.30;9.25;;;18.80;99.90;;;;;;2071540;28;20034;-68
2021/08/13 03:00:21;;;;;;;10.25;9.00;;;18.80;99.90;;;;;;2069956;28;20494;-68
2021/08/13 03:01:25;;;;;;;13.57;8.38;;;18.80;99.90;;;;;;2072714;28;20385;-68
2021/08/13 03:02:26;;;;;;;9.35;8.45;;;18.80;99.90;;;;;;2072182;28;20109;-68
2021/08/13 03:03:30;;;;;;;9.27;8.25;;;18.80;99.90;;;;;;2079682;28;20022;-68
2021/08/13 03:04:33;;;;;;;12.63;8.82;;;18.80;99.90;;;;;;2075354;28;20040;-68
2021/08/13 03:05:36;;;;;;;11.40;9.30;;;18.80;99.90;;;;;;2071771;28;20030;-68
2021/08/13 03:06:39;;;;;;;11.57;8.98;;;18.80;99.90;;;;;;2072094;28;20022;-69
2021/08/13 03:07:40;;;;;;;11.35;9.23;;;18.80;99.90;;;;;;2071662;28;20030;-68
2021/08/13 03:08:42;;;;;;;10.32;9.30;;;18.80;99.90;;;;;;2071989;28;20920;-68
2021/08/13 03:09:43;;;;;;;12.20;9.20;;;18.80;99.90;;;;;;2072176;28;20430;-68
2021/08/13 03:10:44;;;;;;;9.27;8.38;;;18.80;99.90;;;;;;2071616;28;20151;-68
2021/08/13 03:11:46;;;;;;;9.45;8.55;;;18.80;99.90;;;;;;2071823;28;20026;-69
2021/08/13 03:12:49;;;;;;;11.10;8.57;;;18.80;99.90;;;;;;2070940;28;20030;-68
2021/08/13 03:13:50;;;;;;;8.98;8.13;;;18.80;99.90;;;;;;2071547;28;20026;-69
2021/08/13 03:14:51;;;;;;;10.43;8.05;;;18.80;99.90;;;;;;2071262;28;20040;-69
2021/08/13 03:15:53;;;;;;;11.48;8.80;;;18.80;99.90;;;;;;2071421;28;20029;-68
2021/08/13 03:16:54;;;;;;;10.43;8.57;;;18.80;99.90;;;;;;2071482;28;20510;-68
2021/08/13 03:17:55;;;;;;;9.63;8.63;;;18.80;99.90;;;;;;2071771;28;20096;-68
2021/08/13 03:18:56;;;;;;;8.90;8.00;;;18.80;99.90;;;;;;2071215;28;20029;-68
2021/08/13 03:19:57;;;;;;;11.15;9.00;;;18.80;99.90;;;;;;2071385;28;20022;-68
2021/08/13 03:20:58;;;;;;;10.70;9.60;;;18.80;99.90;;;;;;2071368;28;20647;-68
2021/08/13 03:21:59;;;;;;;10.43;9.30;;;18.80;99.90;;;;;;2070577;28;20053;-68
2021/08/13 03:23:01;;;;;;;10.52;8.50;;;18.80;99.90;;;;;;2070417;28;20025;-68
2021/08/13 03:24:02;;;;;;;9.43;8.43;;;18.80;99.90;;;;;;2071489;28;20482;-68
2021/08/13 03:25:05;;;;;;;9.23;8.32;;;18.80;99.90;;;;;;2071548;28;20018;-69
2021/08/13 03:26:09;;;;;;;10.00;8.57;;;18.80;99.90;;;;;;2079576;28;20083;-68
2021/08/13 03:27:10;;;;;;;10.02;7.65;;;18.80;99.90;;;;;;2074767;28;20029;-68
2021/08/13 03:28:11;;;;;;;10.65;9.23;;;18.80;99.90;;;;;;2071167;28;20043;-68
2021/08/13 03:29:12;;;;;;;8.90;7.95;;;18.80;99.90;;;;;;2071352;28;20026;-68
2021/08/13 03:30:12;;;;;;;9.15;8.20;;;18.80;99.90;;;;;;2071414;28;20026;-68
2021/08/13 03:31:36;;;;;;;9.60;8.43;;;18.80;99.90;;;;;;2071640;28;20030;-69
2021/08/13 03:32:39;;;;;;;9.35;8.45;;;18.80;99.90;;;;;;2070536;28;20041;-69
2021/08/13 03:33:39;;;;;;;9.05;8.15;;;18.80;99.90;;;;;;2071158;28;20039;-68
2021/08/13 03:34:40;;;;;;;10.65;8.63;;;18.80;99.90;;;;;;2071640;28;20026;-69
2021/08/13 03:35:42;;;;;;;10.82;8.88;;;18.80;99.90;;;;;;2071233;28;20066;-69
2021/08/13 03:36:43;;;;;;;10.25;9.18;;;18.80;99.90;;;;;;2071616;28;20030;-68
2021/08/13 03:37:43;;;;;;;9.15;7.70;;;18.80;99.90;;;;;;2071165;28;20025;-69
2021/08/13 03:38:44;;;;;;;9.70;8.48;;;18.80;99.90;;;;;;2071439;28;20022;-69
2021/08/13 03:39:44;;;;;;;11.25;8.13;;;18.80;99.90;;;;;;2075692;28;20037;-69
2021/08/13 03:40:45;;;;;;;9.00;8.10;;;18.80;99.90;;;;;;2071073;28;20061;-69
2021/08/13 03:41:46;;;;;;;8.55;7.63;;;18.70;99.90;;;;;;2069768;28;20028;-69
2021/08/13 03:42:46;;;;;;;9.38;8.40;;;18.80;99.90;;;;;;2070727;28;20022;-69
2021/08/13 03:43:47;;;;;;;8.82;7.65;;;18.80;99.90;;;;;;2071362;28;20052;-68
2021/08/13 03:44:47;;;;;;;9.80;8.80;;;18.70;99.90;;;;;;2071345;28;20049;-68
2021/08/13 03:45:50;;;;;;;10.50;8.25;;;18.80;99.90;;;;;;2071169;28;20084;-68
2021/08/13 03:46:51;;;;;;;10.00;8.82;;;18.70;99.90;;;;;;2071435;28;20050;-68
2021/08/13 03:47:52;;;;;;;9.30;8.40;;;18.70;99.90;;;;;;2071318;28;20092;-68
2021/08/13 03:48:52;;;;;;;9.85;8.65;;;18.70;99.90;;;;;;2071460;28;20030;-68
2021/08/13 03:49:53;;;;;;;10.52;9.32;;;18.70;99.90;;;;;;2071221;28;20450;-68
2021/08/13 03:50:53;;;;;;;11.57;10.02;;;18.70;99.90;;;;;;2074319;28;20105;-68
2021/08/13 03:51:57;;;;;;;10.68;8.95;;;18.70;99.90;;;;;;2071048;28;20034;-68
2021/08/13 03:52:57;;;;;;;9.70;8.70;;;18.70;99.90;;;;;;2071277;28;20058;-68
2021/08/13 03:53:58;;;;;;;9.05;8.15;;;18.70;99.90;;;;;;2071332;28;20029;-69
2021/08/13 03:54:58;;;;;;;10.07;9.18;;;18.70;99.90;;;;;;2071382;28;20355;-68
2021/08/13 03:55:59;;;;;;;10.95;9.88;;;18.70;99.90;;;;;;2071090;28;20030;-68
2021/08/13 03:56:59;;;;;;;9.65;8.38;;;18.70;99.90;;;;;;2071449;28;20018;-68
2021/08/13 03:58:00;;;;;;;9.32;8.40;;;18.70;99.90;;;;;;2067043;28;20085;-68
2021/08/13 03:59:00;;;;;;;11.20;9.45;;;18.70;99.90;;;;;;2069189;28;20030;-69
2021/08/13 04:00:01;;;;;;;10.10;8.63;;;18.70;99.90;;;;;;2071215;28;20524;-69
2021/08/13 04:01:02;;;;;;;9.77;8.77;;;18.70;99.90;;;;;;2070827;28;20022;-69
2021/08/13 04:02:03;;;;;;;11.65;9.75;;;18.70;99.90;;;;;;2070736;28;20076;-69
2021/08/13 04:03:03;;;;;;;13.02;10.80;;;18.70;99.90;;;;;;2070938;28;20026;-69
2021/08/13 04:04:05;;;;;;;10.43;9.20;;;18.70;99.90;;;;;;2071153;28;20026;-69
2021/08/13 04:05:06;;;;;;;12.13;9.95;;;18.70;99.90;;;;;;2078581;28;20605;-69
2021/08/13 04:06:06;;;;;;;13.30;10.43;;;18.70;99.90;;;;;;2074297;28;20029;-69
2021/08/13 04:07:07;;;;;;;11.15;10.05;;;18.70;99.90;;;;;;2071439;28;20029;-69
2021/08/13 04:08:07;;;;;;;14.77;10.23;;;18.60;99.90;;;;;;2070368;28;20555;-69
2021/08/13 04:09:08;;;;;;;15.43;9.63;;;18.70;99.90;;;;;;2070574;28;20772;-69
2021/08/13 04:10:09;;;;;;;11.45;10.13;;;18.70;99.90;;;;;;2071182;28;20072;-69
2021/08/13 04:11:09;;;;;;;10.50;9.48;;;18.60;99.90;;;;;;2071944;28;20048;-69
2021/08/13 04:12:10;;;;;;;9.93;8.95;;;18.60;99.90;;;;;;2070398;28;20057;-69
2021/08/13 04:13:10;;;;;;;10.45;9.20;;;18.60;99.90;;;;;;2070393;28;20538;-69
2021/08/13 04:14:11;;;;;;;12.30;9.75;;;18.60;99.90;;;;;;2067979;28;20032;-69
2021/08/13 04:15:11;;;;;;;11.13;9.95;;;18.70;99.90;;;;;;2070905;28;20041;-69
2021/08/13 04:16:12;;;;;;;10.80;9.73;;;18.60;99.90;;;;;;2070909;28;20026;-69
2021/08/13 04:17:13;;;;;;;14.68;9.90;;;18.70;99.90;;;;;;2071026;28;20468;-69
2021/08/13 04:18:13;;;;;;;11.50;10.23;;;18.70;99.90;;;;;;2073924;28;20535;-69
2021/08/13 04:19:14;;;;;;;11.55;10.45;;;18.60;99.90;;;;;;2072922;28;20057;-69
2021/08/13 04:20:15;;;;;;;11.05;9.95;;;18.60;99.90;;;;;;2071292;28;20029;-69
2021/08/13 04:21:16;;;;;;;14.32;10.23;;;18.60;99.90;;;;;;2070939;28;20076;-68
2021/08/13 04:22:17;;;;;;;11.77;9.95;;;18.60;99.90;;;;;;2070846;28;20084;-69
2021/08/13 04:23:17;;;;;;;12.05;9.80;;;18.60;99.90;;;;;;2070718;28;20163;-69
2021/08/13 04:24:18;;;;;;;13.95;10.00;;;18.60;99.90;;;;;;2071285;28;20022;-69
2021/08/13 04:25:18;;;;;;;17.70;10.27;;;18.60;99.90;;;;;;2071059;28;20028;-69
2021/08/13 04:26:19;;;;;;;12.27;10.85;;;18.60;99.90;;;;;;2071309;28;20522;-69
2021/08/13 04:27:20;;;;;;;14.13;9.65;;;18.60;99.90;;;;;;2070884;28;20030;-69
2021/08/13 04:28:20;;;;;;;10.85;9.75;;;18.60;99.90;;;;;;2071601;28;20466;-69
2021/08/13 04:29:21;;;;;;;10.48;9.27;;;18.60;99.90;;;;;;2071144;28;20076;-69
2021/08/13 04:30:22;;;;;;;12.00;8.77;;;18.60;99.90;;;;;;2074125;28;20156;-68
2021/08/13 04:31:22;;;;;;;10.15;9.13;;;18.60;99.90;;;;;;2079229;28;20049;-69
2021/08/13 04:32:23;;;;;;;11.63;10.00;;;18.60;99.90;;;;;;2071344;28;20034;-69
2021/08/13 04:33:24;;;;;;;12.20;10.38;;;18.60;99.90;;;;;;2070817;28;20064;-69
2021/08/13 04:34:24;;;;;;;13.32;10.13;;;18.60;99.90;;;;;;2071486;28;20048;-69
2021/08/13 04:35:25;;;;;;;13.48;10.85;;;18.60;99.90;;;;;;2070853;28;20029;-69
2021/08/13 04:36:27;;;;;;;10.57;9.45;;;18.60;99.90;;;;;;2070997;28;20029;-69
2021/08/13 04:37:28;;;;;;;12.27;9.73;;;18.60;99.90;;;;;;2071052;28;20017;-69
2021/08/13 04:38:28;;;;;;;11.60;9.73;;;18.60;99.90;;;;;;2071843;28;20026;-69
2021/08/13 04:39:29;;;;;;;11.75;9.63;;;18.60;99.90;;;;;;2072301;28;20030;-69
2021/08/13 04:40:29;;;;;;;10.45;9.45;;;18.70;99.90;;;;;;2072603;28;20025;-69
2021/08/13 04:41:30;;;;;;;10.55;9.52;;;18.60;99.90;;;;;;2072676;28;20088;-69
2021/08/13 04:42:30;;;;;;;13.35;10.00;;;18.60;99.90;;;;;;2072650;28;20073;-69
2021/08/13 04:43:31;;;;;;;11.32;9.95;;;18.60;99.90;;;;;;2072223;28;20372;-69
2021/08/13 04:44:32;;;;;;;10.68;9.65;;;18.60;99.90;;;;;;2078447;28;20034;-69
2021/08/13 04:45:32;;;;;;;13.63;9.52;;;18.60;99.90;;;;;;2072535;28;20050;-69
2021/08/13 04:46:33;;;;;;;10.50;9.40;;;18.70;99.90;;;;;;2072389;28;20113;-69
2021/08/13 04:47:33;;;;;;;12.45;10.18;;;18.60;99.90;;;;;;2072634;28;20057;-69
2021/08/13 04:48:34;;;;;;;9.88;8.88;;;18.60;99.90;;;;;;2072268;28;20036;-69
2021/08/13 04:49:35;;;;;;;11.43;10.13;;;18.60;99.90;;;;;;2072663;28;20042;-69
2021/08/13 04:50:36;;;;;;;13.43;10.65;;;18.60;99.90;;;;;;2079743;28;20126;-69
2021/08/13 04:51:36;;;;;;;11.95;9.48;;;18.60;99.90;;;;;;2065483;28;20041;-69
2021/08/13 04:52:49;;;;;;;13.63;9.52;;;18.60;99.90;;;;;;2063547;28;20031;-68
2021/08/13 04:53:49;;;;;;;10.75;9.65;;;18.60;99.90;;;;;;2064562;28;20037;-69
2021/08/13 04:54:50;;;;;;;10.68;9.55;;;18.60;99.90;;;;;;2070157;28;20050;-69
2021/08/13 04:55:51;;;;;;;11.02;9.93;;;18.60;99.90;;;;;;2072285;28;20092;-69
2021/08/13 04:56:51;;;;;;;11.80;9.65;;;18.60;99.90;;;;;;2072593;28;20030;-69
2021/08/13 04:57:53;;;;;;;9.45;8.55;;;18.70;99.90;;;;;;2072707;28;20045;-69
2021/08/13 04:58:54;;;;;;;11.05;9.88;;;18.70;99.90;;;;;;2072525;28;20017;-69
2021/08/13 04:59:54;;;;;;;16.83;10.40;;;18.70;99.90;;;;;;2072254;28;20030;-69
2021/08/13 05:00:56;;;;;;;12.55;10.07;;;18.70;99.90;;;;;;2071594;28;20100;-69
2021/08/13 05:01:57;;;;;;;11.77;9.70;;;18.70;99.90;;;;;;2071702;28;20025;-69
2021/08/13 05:02:58;;;;;;;15.10;10.32;;;18.70;99.90;;;;;;2072097;28;20011;-69
2021/08/13 05:03:59;;;;;;;13.80;10.30;;;18.80;99.90;;;;;;2072584;28;20026;-69
2021/08/13 05:05:00;;;;;;;12.50;9.98;;;18.70;99.90;;;;;;2072272;28;20022;-69
2021/08/13 05:06:00;;;;;;;12.48;9.85;;;18.80;99.90;;;;;;2072619;28;20022;-69
2021/08/13 05:07:01;;;;;;;10.45;9.35;;;18.80;99.90;;;;;;2072536;28;20053;-69
2021/08/13 05:08:04;;;;;;;11.55;9.52;;;18.80;99.90;;;;;;2072384;28;20077;-69
2021/08/13 05:09:05;;;;;;;11.43;10.18;;;18.80;99.90;;;;;;2072154;28;20033;-69
2021/08/13 05:10:11;;;;;;;11.45;9.75;;;18.80;99.90;;;;;;2072833;28;20026;-69
2021/08/13 05:11:12;;;;;;;10.50;9.40;;;18.80;99.90;;;;;;2072467;28;20022;-69
2021/08/13 05:12:12;;;;;;;11.30;10.07;;;18.80;99.90;;;;;;2078572;28;20048;-69
2021/08/13 05:13:13;;;;;;;10.77;9.65;;;18.80;99.90;;;;;;2071833;28;20096;-69
2021/08/13 05:14:13;;;;;;;11.70;10.02;;;18.90;99.90;;;;;;2072434;28;20022;-69
2021/08/13 05:15:14;;;;;;;10.80;9.70;;;18.90;99.90;;;;;;2072315;28;20030;-69
2021/08/13 05:16:15;;;;;;;11.85;10.35;;;18.90;99.90;;;;;;2072227;28;20049;-69
2021/08/13 05:17:15;;;;;;;12.20;9.88;;;18.90;99.90;;;;;;2072293;28;20463;-69
2021/08/13 05:18:16;;;;;;;11.02;9.90;;;19.00;99.90;;;;;;2072409;28;20034;-69
2021/08/13 05:19:16;;;;;;;11.40;10.27;;;19.00;99.90;;;;;;2072179;28;20026;-69
2021/08/13 05:20:17;;;;;;;13.32;9.95;;;19.00;99.90;;;;;;2072499;28;20454;-69
2021/08/13 05:21:18;;;;;;;12.07;10.20;;;19.00;99.90;;;;;;2072248;28;20347;-69
2021/08/13 05:22:18;;;;;;;13.82;11.05;;;19.00;99.90;;;;;;2068283;28;20022;-69